sensor_id;sensor_type;location;lat;lon;timestamp;P1;durP1;ratioP1;P2;durP2;ratioP2
51746;SDS011;37825;40.088;18.302;2022-08-27T00:01:25;12.82;;;8.98;;
51746;SDS011;37825;40.088;18.302;2022-08-27T00:03:53;13.77;;;9.73;;
51746;SDS011;37825;40.088;18.302;2022-08-27T00:06:23;17.33;;;11.27;;
51746;SDS011;37825;40.088;18.302;2022-08-27T00:08:51;14.25;;;11.05;;
51746;SDS011;37825;40.088;18.302;2022-08-27T00:11:20;18.70;;;12.90;;
51746;SDS011;37825;40.088;18.302;2022-08-27T00:13:51;14.20;;;12.15;;
51746;SDS011;37825;40.088;18.302;2022-08-27T00:16:19;17.05;;;11.90;;
51746;SDS011;37825;40.088;18.302;2022-08-27T00:18:48;14.82;;;11.25;;
51746;SDS011;37825;40.088;18.302;2022-08-27T00:21:16;24.88;;;12.35;;
51746;SDS011;37825;40.088;18.302;2022-08-27T00:23:44;15.82;;;11.80;;
51746;SDS011;37825;40.088;18.302;2022-08-27T00:26:13;17.60;;;12.30;;
51746;SDS011;37825;40.088;18.302;2022-08-27T00:28:42;17.05;;;11.27;;
51746;SDS011;37825;40.088;18.302;2022-08-27T00:31:11;12.73;;;10.32;;
51746;SDS011;37825;40.088;18.302;2022-08-27T00:33:39;18.67;;;10.13;;
51746;SDS011;37825;40.088;18.302;2022-08-27T00:36:09;20.90;;;10.55;;
51746;SDS011;37825;40.088;18.302;2022-08-27T00:38:39;11.77;;;9.32;;
51746;SDS011;37825;40.088;18.302;2022-08-27T00:41:08;15.45;;;10.68;;
51746;SDS011;37825;40.088;18.302;2022-08-27T00:43:47;15.95;;;10.07;;
51746;SDS011;37825;40.088;18.302;2022-08-27T00:46:20;14.70;;;10.27;;
51746;SDS011;37825;40.088;18.302;2022-08-27T00:48:50;12.60;;;10.27;;
51746;SDS011;37825;40.088;18.302;2022-08-27T00:51:20;14.52;;;9.52;;
51746;SDS011;37825;40.088;18.302;2022-08-27T00:53:49;15.52;;;10.18;;
51746;SDS011;37825;40.088;18.302;2022-08-27T00:56:22;12.85;;;9.95;;
51746;SDS011;37825;40.088;18.302;2022-08-27T00:58:52;16.00;;;10.90;;
51746;SDS011;37825;40.088;18.302;2022-08-27T01:01:25;23.63;;;10.70;;
51746;SDS011;37825;40.088;18.302;2022-08-27T01:03:56;16.98;;;11.35;;
51746;SDS011;37825;40.088;18.302;2022-08-27T01:06:27;15.25;;;10.93;;
51746;SDS011;37825;40.088;18.302;2022-08-27T01:09:03;24.80;;;12.10;;
51746;SDS011;37825;40.088;18.302;2022-08-27T01:11:31;19.88;;;11.38;;
51746;SDS011;37825;40.088;18.302;2022-08-27T01:14:01;16.25;;;11.77;;
51746;SDS011;37825;40.088;18.302;2022-08-27T01:16:34;19.90;;;12.05;;
51746;SDS011;37825;40.088;18.302;2022-08-27T01:19:05;16.92;;;12.60;;
51746;SDS011;37825;40.088;18.302;2022-08-27T01:21:35;19.90;;;14.15;;
51746;SDS011;37825;40.088;18.302;2022-08-27T01:26:52;21.15;;;14.05;;
51746;SDS011;37825;40.088;18.302;2022-08-27T01:29:21;21.15;;;12.95;;
51746;SDS011;37825;40.088;18.302;2022-08-27T01:31:50;21.42;;;14.25;;
51746;SDS011;37825;40.088;18.302;2022-08-27T01:34:19;26.50;;;19.67;;
51746;SDS011;37825;40.088;18.302;2022-08-27T01:36:47;32.10;;;24.10;;
51746;SDS011;37825;40.088;18.302;2022-08-27T01:39:15;32.35;;;24.10;;
51746;SDS011;37825;40.088;18.302;2022-08-27T01:41:43;32.13;;;24.70;;
51746;SDS011;37825;40.088;18.302;2022-08-27T01:44:12;30.13;;;21.33;;
51746;SDS011;37825;40.088;18.302;2022-08-27T01:46:41;22.67;;;17.00;;
51746;SDS011;37825;40.088;18.302;2022-08-27T01:49:10;19.92;;;16.58;;
51746;SDS011;37825;40.088;18.302;2022-08-27T01:51:38;23.02;;;17.10;;
51746;SDS011;37825;40.088;18.302;2022-08-27T01:54:07;19.13;;;16.35;;
51746;SDS011;37825;40.088;18.302;2022-08-27T01:56:36;17.83;;;16.02;;
51746;SDS011;37825;40.088;18.302;2022-08-27T02:02:07;19.50;;;14.20;;
51746;SDS011;37825;40.088;18.302;2022-08-27T02:04:37;20.15;;;14.93;;
51746;SDS011;37825;40.088;18.302;2022-08-27T02:07:06;17.30;;;13.68;;
51746;SDS011;37825;40.088;18.302;2022-08-27T02:09:35;16.13;;;13.02;;
51746;SDS011;37825;40.088;18.302;2022-08-27T02:12:03;18.45;;;13.40;;
51746;SDS011;37825;40.088;18.302;2022-08-27T02:14:32;14.30;;;12.43;;
51746;SDS011;37825;40.088;18.302;2022-08-27T02:17:00;17.25;;;13.10;;
51746;SDS011;37825;40.088;18.302;2022-08-27T02:19:29;15.70;;;12.35;;
51746;SDS011;37825;40.088;18.302;2022-08-27T02:21:58;16.02;;;12.95;;
51746;SDS011;37825;40.088;18.302;2022-08-27T02:24:27;17.23;;;12.88;;
51746;SDS011;37825;40.088;18.302;2022-08-27T02:26:55;15.32;;;12.77;;
51746;SDS011;37825;40.088;18.302;2022-08-27T02:29:24;23.83;;;12.82;;
51746;SDS011;37825;40.088;18.302;2022-08-27T02:31:53;20.60;;;13.25;;
51746;SDS011;37825;40.088;18.302;2022-08-27T02:34:21;16.70;;;12.68;;
51746;SDS011;37825;40.088;18.302;2022-08-27T02:36:49;19.10;;;12.93;;
51746;SDS011;37825;40.088;18.302;2022-08-27T02:39:20;16.30;;;12.95;;
51746;SDS011;37825;40.088;18.302;2022-08-27T02:41:49;17.73;;;12.50;;
51746;SDS011;37825;40.088;18.302;2022-08-27T02:44:17;21.90;;;14.73;;
51746;SDS011;37825;40.088;18.302;2022-08-27T02:46:45;18.10;;;14.02;;
51746;SDS011;37825;40.088;18.302;2022-08-27T02:49:15;20.83;;;16.13;;
51746;SDS011;37825;40.088;18.302;2022-08-27T02:51:44;21.63;;;14.98;;
51746;SDS011;37825;40.088;18.302;2022-08-27T02:54:13;17.08;;;15.02;;
51746;SDS011;37825;40.088;18.302;2022-08-27T02:56:41;22.10;;;16.23;;
51746;SDS011;37825;40.088;18.302;2022-08-27T02:59:09;21.50;;;15.30;;
51746;SDS011;37825;40.088;18.302;2022-08-27T03:01:38;18.52;;;16.13;;
51746;SDS011;37825;40.088;18.302;2022-08-27T03:04:06;22.95;;;16.40;;
51746;SDS011;37825;40.088;18.302;2022-08-27T03:06:36;21.90;;;17.40;;
51746;SDS011;37825;40.088;18.302;2022-08-27T03:09:04;19.02;;;17.02;;
51746;SDS011;37825;40.088;18.302;2022-08-27T03:11:33;18.95;;;16.67;;
51746;SDS011;37825;40.088;18.302;2022-08-27T03:14:01;20.17;;;15.95;;
51746;SDS011;37825;40.088;18.302;2022-08-27T03:16:32;21.77;;;16.65;;
51746;SDS011;37825;40.088;18.302;2022-08-27T03:19:01;18.90;;;16.35;;
51746;SDS011;37825;40.088;18.302;2022-08-27T03:21:30;25.42;;;17.75;;
51746;SDS011;37825;40.088;18.302;2022-08-27T03:23:59;21.23;;;17.05;;
51746;SDS011;37825;40.088;18.302;2022-08-27T03:26:28;22.58;;;18.08;;
51746;SDS011;37825;40.088;18.302;2022-08-27T03:28:57;19.98;;;16.63;;
51746;SDS011;37825;40.088;18.302;2022-08-27T03:31:26;21.00;;;17.13;;
51746;SDS011;37825;40.088;18.302;2022-08-27T03:33:57;20.35;;;16.67;;
51746;SDS011;37825;40.088;18.302;2022-08-27T03:36:27;27.98;;;17.75;;
51746;SDS011;37825;40.088;18.302;2022-08-27T03:38:56;22.55;;;18.05;;
51746;SDS011;37825;40.088;18.302;2022-08-27T03:41:25;20.13;;;17.50;;
51746;SDS011;37825;40.088;18.302;2022-08-27T03:43:53;23.25;;;17.63;;
51746;SDS011;37825;40.088;18.302;2022-08-27T03:46:22;23.40;;;17.95;;
51746;SDS011;37825;40.088;18.302;2022-08-27T03:48:56;21.33;;;16.17;;
51746;SDS011;37825;40.088;18.302;2022-08-27T03:51:24;20.52;;;16.35;;
51746;SDS011;37825;40.088;18.302;2022-08-27T03:53:53;24.08;;;17.25;;
51746;SDS011;37825;40.088;18.302;2022-08-27T03:56:21;22.85;;;17.55;;
51746;SDS011;37825;40.088;18.302;2022-08-27T03:58:49;20.55;;;18.35;;
51746;SDS011;37825;40.088;18.302;2022-08-27T04:01:18;24.23;;;17.88;;
51746;SDS011;37825;40.088;18.302;2022-08-27T04:03:46;21.67;;;16.63;;
51746;SDS011;37825;40.088;18.302;2022-08-27T04:06:14;21.48;;;16.70;;
51746;SDS011;37825;40.088;18.302;2022-08-27T04:08:43;20.00;;;16.75;;
51746;SDS011;37825;40.088;18.302;2022-08-27T04:11:12;20.95;;;16.75;;
51746;SDS011;37825;40.088;18.302;2022-08-27T04:13:40;19.55;;;16.23;;
51746;SDS011;37825;40.088;18.302;2022-08-27T04:16:09;22.67;;;16.05;;
51746;SDS011;37825;40.088;18.302;2022-08-27T04:18:38;19.85;;;17.38;;
51746;SDS011;37825;40.088;18.302;2022-08-27T04:21:09;23.50;;;16.90;;
51746;SDS011;37825;40.088;18.302;2022-08-27T04:23:39;21.38;;;16.10;;
51746;SDS011;37825;40.088;18.302;2022-08-27T04:26:08;21.98;;;16.02;;
51746;SDS011;37825;40.088;18.302;2022-08-27T04:28:37;22.77;;;16.80;;
51746;SDS011;37825;40.088;18.302;2022-08-27T04:31:06;20.50;;;15.85;;
51746;SDS011;37825;40.088;18.302;2022-08-27T04:33:35;25.63;;;17.80;;
51746;SDS011;37825;40.088;18.302;2022-08-27T04:36:05;23.25;;;17.63;;
51746;SDS011;37825;40.088;18.302;2022-08-27T04:38:34;23.52;;;17.20;;
51746;SDS011;37825;40.088;18.302;2022-08-27T04:41:06;20.30;;;16.38;;
51746;SDS011;37825;40.088;18.302;2022-08-27T04:43:56;24.73;;;17.55;;
51746;SDS011;37825;40.088;18.302;2022-08-27T04:46:26;26.58;;;17.95;;
51746;SDS011;37825;40.088;18.302;2022-08-27T04:48:55;22.35;;;17.95;;
51746;SDS011;37825;40.088;18.302;2022-08-27T04:51:25;21.60;;;18.73;;
51746;SDS011;37825;40.088;18.302;2022-08-27T04:53:54;21.90;;;19.70;;
51746;SDS011;37825;40.088;18.302;2022-08-27T04:56:23;25.30;;;16.98;;
51746;SDS011;37825;40.088;18.302;2022-08-27T04:58:51;21.23;;;17.17;;
51746;SDS011;37825;40.088;18.302;2022-08-27T05:01:21;25.27;;;17.20;;
51746;SDS011;37825;40.088;18.302;2022-08-27T05:03:50;21.27;;;17.33;;
51746;SDS011;37825;40.088;18.302;2022-08-27T05:06:19;20.60;;;16.17;;
51746;SDS011;37825;40.088;18.302;2022-08-27T05:08:48;19.58;;;15.93;;
51746;SDS011;37825;40.088;18.302;2022-08-27T05:11:17;21.45;;;14.70;;
51746;SDS011;37825;40.088;18.302;2022-08-27T05:13:47;19.40;;;14.23;;
51746;SDS011;37825;40.088;18.302;2022-08-27T05:16:19;17.77;;;13.10;;
51746;SDS011;37825;40.088;18.302;2022-08-27T05:18:48;19.13;;;14.23;;
51746;SDS011;37825;40.088;18.302;2022-08-27T05:21:18;18.95;;;12.63;;
51746;SDS011;37825;40.088;18.302;2022-08-27T05:23:47;17.67;;;13.02;;
51746;SDS011;37825;40.088;18.302;2022-08-27T05:26:15;19.30;;;13.30;;
51746;SDS011;37825;40.088;18.302;2022-08-27T05:28:44;18.92;;;13.90;;
51746;SDS011;37825;40.088;18.302;2022-08-27T05:31:15;22.35;;;14.77;;
51746;SDS011;37825;40.088;18.302;2022-08-27T05:33:44;21.50;;;16.05;;
51746;SDS011;37825;40.088;18.302;2022-08-27T05:36:14;24.40;;;14.32;;
51746;SDS011;37825;40.088;18.302;2022-08-27T05:38:42;22.33;;;15.60;;
51746;SDS011;37825;40.088;18.302;2022-08-27T05:41:12;17.65;;;15.43;;
51746;SDS011;37825;40.088;18.302;2022-08-27T05:43:42;16.83;;;15.10;;
51746;SDS011;37825;40.088;18.302;2022-08-27T05:46:14;20.52;;;14.85;;
51746;SDS011;37825;40.088;18.302;2022-08-27T05:48:43;16.05;;;13.88;;
51746;SDS011;37825;40.088;18.302;2022-08-27T05:51:16;15.50;;;12.65;;
51746;SDS011;37825;40.088;18.302;2022-08-27T05:53:45;16.75;;;13.23;;
51746;SDS011;37825;40.088;18.302;2022-08-27T05:56:21;16.10;;;13.48;;
51746;SDS011;37825;40.088;18.302;2022-08-27T05:58:50;14.55;;;12.35;;
51746;SDS011;37825;40.088;18.302;2022-08-27T06:01:39;18.38;;;11.55;;
51746;SDS011;37825;40.088;18.302;2022-08-27T06:04:07;17.13;;;10.48;;
51746;SDS011;37825;40.088;18.302;2022-08-27T06:06:36;15.13;;;9.98;;
51746;SDS011;37825;40.088;18.302;2022-08-27T06:09:06;17.60;;;9.88;;
51746;SDS011;37825;40.088;18.302;2022-08-27T06:11:35;12.50;;;8.85;;
51746;SDS011;37825;40.088;18.302;2022-08-27T06:14:04;15.02;;;8.30;;
51746;SDS011;37825;40.088;18.302;2022-08-27T06:16:32;15.45;;;9.70;;
51746;SDS011;37825;40.088;18.302;2022-08-27T06:19:00;19.67;;;9.85;;
51746;SDS011;37825;40.088;18.302;2022-08-27T06:21:29;10.38;;;8.32;;
51746;SDS011;37825;40.088;18.302;2022-08-27T06:23:58;10.05;;;7.78;;
51746;SDS011;37825;40.088;18.302;2022-08-27T06:26:26;14.55;;;8.25;;
51746;SDS011;37825;40.088;18.302;2022-08-27T06:28:55;9.93;;;7.55;;
51746;SDS011;37825;40.088;18.302;2022-08-27T06:31:28;9.20;;;7.80;;
51746;SDS011;37825;40.088;18.302;2022-08-27T06:33:59;12.65;;;7.60;;
51746;SDS011;37825;40.088;18.302;2022-08-27T06:36:29;8.23;;;6.80;;
51746;SDS011;37825;40.088;18.302;2022-08-27T06:38:58;11.60;;;6.80;;
51746;SDS011;37825;40.088;18.302;2022-08-27T06:41:26;8.32;;;6.22;;
51746;SDS011;37825;40.088;18.302;2022-08-27T06:43:56;9.18;;;6.38;;
51746;SDS011;37825;40.088;18.302;2022-08-27T06:46:25;10.00;;;6.57;;
51746;SDS011;37825;40.088;18.302;2022-08-27T06:48:54;7.93;;;6.63;;
51746;SDS011;37825;40.088;18.302;2022-08-27T06:51:25;8.13;;;6.13;;
51746;SDS011;37825;40.088;18.302;2022-08-27T06:53:56;7.72;;;6.13;;
51746;SDS011;37825;40.088;18.302;2022-08-27T06:56:24;8.65;;;5.78;;
51746;SDS011;37825;40.088;18.302;2022-08-27T06:58:53;11.00;;;6.65;;
51746;SDS011;37825;40.088;18.302;2022-08-27T07:01:23;12.30;;;6.50;;
51746;SDS011;37825;40.088;18.302;2022-08-27T07:03:55;13.38;;;5.97;;
51746;SDS011;37825;40.088;18.302;2022-08-27T07:06:25;8.80;;;6.35;;
51746;SDS011;37825;40.088;18.302;2022-08-27T07:08:54;13.20;;;6.88;;
51746;SDS011;37825;40.088;18.302;2022-08-27T07:11:23;7.13;;;5.93;;
51746;SDS011;37825;40.088;18.302;2022-08-27T07:13:51;13.75;;;6.63;;
51746;SDS011;37825;40.088;18.302;2022-08-27T07:16:20;10.98;;;6.53;;
51746;SDS011;37825;40.088;18.302;2022-08-27T07:18:52;6.90;;;6.03;;
51746;SDS011;37825;40.088;18.302;2022-08-27T07:21:22;6.95;;;6.35;;
51746;SDS011;37825;40.088;18.302;2022-08-27T07:23:51;8.73;;;5.95;;
51746;SDS011;37825;40.088;18.302;2022-08-27T07:26:21;9.25;;;4.97;;
51746;SDS011;37825;40.088;18.302;2022-08-27T07:28:49;6.97;;;5.32;;
51746;SDS011;37825;40.088;18.302;2022-08-27T07:31:18;8.07;;;5.07;;
51746;SDS011;37825;40.088;18.302;2022-08-27T07:33:48;8.52;;;5.40;;
51746;SDS011;37825;40.088;18.302;2022-08-27T07:36:17;5.60;;;4.55;;
51746;SDS011;37825;40.088;18.302;2022-08-27T07:38:45;5.72;;;4.90;;
51746;SDS011;37825;40.088;18.302;2022-08-27T07:41:14;4.55;;;4.00;;
51746;SDS011;37825;40.088;18.302;2022-08-27T07:43:42;5.25;;;4.45;;
51746;SDS011;37825;40.088;18.302;2022-08-27T07:46:29;6.28;;;4.95;;
51746;SDS011;37825;40.088;18.302;2022-08-27T07:48:57;5.47;;;4.70;;
51746;SDS011;37825;40.088;18.302;2022-08-27T07:51:27;5.15;;;4.60;;
51746;SDS011;37825;40.088;18.302;2022-08-27T07:53:58;5.40;;;4.28;;
51746;SDS011;37825;40.088;18.302;2022-08-27T07:56:26;5.63;;;4.57;;
51746;SDS011;37825;40.088;18.302;2022-08-27T07:58:55;4.72;;;4.22;;
51746;SDS011;37825;40.088;18.302;2022-08-27T08:01:23;5.00;;;4.35;;
51746;SDS011;37825;40.088;18.302;2022-08-27T08:03:51;6.90;;;4.60;;
51746;SDS011;37825;40.088;18.302;2022-08-27T08:06:20;5.55;;;4.20;;
51746;SDS011;37825;40.088;18.302;2022-08-27T08:08:49;4.38;;;3.30;;
51746;SDS011;37825;40.088;18.302;2022-08-27T08:11:18;6.72;;;4.07;;
51746;SDS011;37825;40.088;18.302;2022-08-27T08:13:46;4.65;;;4.00;;
51746;SDS011;37825;40.088;18.302;2022-08-27T08:16:15;5.40;;;4.47;;
51746;SDS011;37825;40.088;18.302;2022-08-27T08:18:44;7.15;;;4.20;;
51746;SDS011;37825;40.088;18.302;2022-08-27T08:21:13;4.65;;;3.95;;
51746;SDS011;37825;40.088;18.302;2022-08-27T08:23:42;5.00;;;3.80;;
51746;SDS011;37825;40.088;18.302;2022-08-27T08:26:10;4.70;;;3.75;;
51746;SDS011;37825;40.088;18.302;2022-08-27T08:28:39;5.93;;;3.65;;
51746;SDS011;37825;40.088;18.302;2022-08-27T08:31:08;6.07;;;3.67;;
51746;SDS011;37825;40.088;18.302;2022-08-27T08:33:36;4.03;;;3.28;;
51746;SDS011;37825;40.088;18.302;2022-08-27T08:36:09;5.95;;;4.22;;
51746;SDS011;37825;40.088;18.302;2022-08-27T08:38:38;8.13;;;3.53;;
51746;SDS011;37825;40.088;18.302;2022-08-27T08:41:18;7.28;;;3.65;;
51746;SDS011;37825;40.088;18.302;2022-08-27T08:43:48;8.65;;;3.92;;
51746;SDS011;37825;40.088;18.302;2022-08-27T08:46:37;8.40;;;3.65;;
51746;SDS011;37825;40.088;18.302;2022-08-27T08:52:07;6.45;;;3.30;;
51746;SDS011;37825;40.088;18.302;2022-08-27T08:54:36;4.60;;;2.97;;
51746;SDS011;37825;40.088;18.302;2022-08-27T08:57:12;7.82;;;3.40;;
51746;SDS011;37825;40.088;18.302;2022-08-27T08:59:44;4.75;;;4.18;;
51746;SDS011;37825;40.088;18.302;2022-08-27T09:02:15;6.03;;;3.60;;
51746;SDS011;37825;40.088;18.302;2022-08-27T09:04:44;5.93;;;3.65;;
51746;SDS011;37825;40.088;18.302;2022-08-27T09:07:22;5.28;;;3.70;;
51746;SDS011;37825;40.088;18.302;2022-08-27T09:10:09;11.18;;;4.30;;
51746;SDS011;37825;40.088;18.302;2022-08-27T09:12:38;10.25;;;4.47;;
51746;SDS011;37825;40.088;18.302;2022-08-27T09:15:11;8.73;;;4.38;;
51746;SDS011;37825;40.088;18.302;2022-08-27T09:17:40;13.30;;;3.85;;
51746;SDS011;37825;40.088;18.302;2022-08-27T09:20:09;5.13;;;3.45;;
51746;SDS011;37825;40.088;18.302;2022-08-27T09:22:56;7.32;;;4.10;;
51746;SDS011;37825;40.088;18.302;2022-08-27T09:25:32;10.80;;;3.88;;
51746;SDS011;37825;40.088;18.302;2022-08-27T09:28:01;19.77;;;4.65;;
51746;SDS011;37825;40.088;18.302;2022-08-27T09:30:39;11.05;;;4.07;;
51746;SDS011;37825;40.088;18.302;2022-08-27T09:33:07;9.45;;;4.13;;
51746;SDS011;37825;40.088;18.302;2022-08-27T09:35:43;12.15;;;4.60;;
51746;SDS011;37825;40.088;18.302;2022-08-27T09:38:21;8.90;;;3.78;;
51746;SDS011;37825;40.088;18.302;2022-08-27T09:40:51;5.93;;;3.63;;
51746;SDS011;37825;40.088;18.302;2022-08-27T09:43:21;10.98;;;4.43;;
51746;SDS011;37825;40.088;18.302;2022-08-27T09:48:19;5.18;;;3.17;;
51746;SDS011;37825;40.088;18.302;2022-08-27T09:50:48;7.40;;;4.43;;
51746;SDS011;37825;40.088;18.302;2022-08-27T09:53:22;10.23;;;4.35;;
51746;SDS011;37825;40.088;18.302;2022-08-27T09:56:04;6.55;;;3.22;;
51746;SDS011;37825;40.088;18.302;2022-08-27T10:01:16;8.32;;;3.75;;
51746;SDS011;37825;40.088;18.302;2022-08-27T10:03:45;6.20;;;3.92;;
51746;SDS011;37825;40.088;18.302;2022-08-27T10:06:13;9.82;;;3.58;;
51746;SDS011;37825;40.088;18.302;2022-08-27T10:08:53;8.93;;;3.55;;
51746;SDS011;37825;40.088;18.302;2022-08-27T10:11:28;6.47;;;3.55;;
51746;SDS011;37825;40.088;18.302;2022-08-27T10:22:02;9.73;;;4.03;;
51746;SDS011;37825;40.088;18.302;2022-08-27T10:24:40;8.45;;;3.40;;
51746;SDS011;37825;40.088;18.302;2022-08-27T10:27:18;8.63;;;3.50;;
51746;SDS011;37825;40.088;18.302;2022-08-27T10:29:54;9.35;;;3.78;;
51746;SDS011;37825;40.088;18.302;2022-08-27T10:37:47;7.82;;;3.17;;
51746;SDS011;37825;40.088;18.302;2022-08-27T10:43:07;6.75;;;4.82;;
51746;SDS011;37825;40.088;18.302;2022-08-27T10:48:29;7.30;;;5.00;;
51746;SDS011;37825;40.088;18.302;2022-08-27T10:51:06;10.90;;;5.20;;
51746;SDS011;37825;40.088;18.302;2022-08-27T10:56:20;9.05;;;4.88;;
51746;SDS011;37825;40.088;18.302;2022-08-27T11:04:05;9.80;;;4.78;;
51746;SDS011;37825;40.088;18.302;2022-08-27T11:06:36;10.75;;;4.75;;
51746;SDS011;37825;40.088;18.302;2022-08-27T11:09:15;7.10;;;5.10;;
51746;SDS011;37825;40.088;18.302;2022-08-27T11:11:46;7.63;;;4.68;;
51746;SDS011;37825;40.088;18.302;2022-08-27T11:14:37;10.80;;;5.07;;
51746;SDS011;37825;40.088;18.302;2022-08-27T11:17:15;8.85;;;5.68;;
51746;SDS011;37825;40.088;18.302;2022-08-27T11:19:52;5.55;;;4.97;;
51746;SDS011;37825;40.088;18.302;2022-08-27T11:22:23;6.30;;;5.30;;
51746;SDS011;37825;40.088;18.302;2022-08-27T11:24:58;9.77;;;5.60;;
51746;SDS011;37825;40.088;18.302;2022-08-27T11:27:31;6.95;;;4.43;;
51746;SDS011;37825;40.088;18.302;2022-08-27T11:30:05;10.23;;;5.18;;
51746;SDS011;37825;40.088;18.302;2022-08-27T11:35:18;9.85;;;4.90;;
51746;SDS011;37825;40.088;18.302;2022-08-27T11:42:55;6.30;;;4.30;;
51746;SDS011;37825;40.088;18.302;2022-08-27T11:45:28;6.03;;;5.43;;
51746;SDS011;37825;40.088;18.302;2022-08-27T11:48:02;10.07;;;4.85;;
51746;SDS011;37825;40.088;18.302;2022-08-27T11:50:41;8.43;;;5.28;;
51746;SDS011;37825;40.088;18.302;2022-08-27T11:53:25;9.25;;;5.88;;
51746;SDS011;37825;40.088;18.302;2022-08-27T11:55:55;7.30;;;4.95;;
51746;SDS011;37825;40.088;18.302;2022-08-27T11:58:28;9.85;;;4.88;;
51746;SDS011;37825;40.088;18.302;2022-08-27T12:00:57;9.60;;;5.13;;
51746;SDS011;37825;40.088;18.302;2022-08-27T12:03:31;7.93;;;5.28;;
51746;SDS011;37825;40.088;18.302;2022-08-27T12:08:30;9.52;;;5.93;;
51746;SDS011;37825;40.088;18.302;2022-08-27T12:16:09;10.80;;;4.53;;
51746;SDS011;37825;40.088;18.302;2022-08-27T12:21:24;7.55;;;5.38;;
51746;SDS011;37825;40.088;18.302;2022-08-27T12:26:52;5.30;;;4.78;;
51746;SDS011;37825;40.088;18.302;2022-08-27T12:37:34;7.10;;;4.93;;
51746;SDS011;37825;40.088;18.302;2022-08-27T12:40:05;7.00;;;4.97;;
51746;SDS011;37825;40.088;18.302;2022-08-27T12:42:39;6.05;;;4.82;;
51746;SDS011;37825;40.088;18.302;2022-08-27T12:45:07;8.88;;;4.75;;
51746;SDS011;37825;40.088;18.302;2022-08-27T12:47:38;9.32;;;4.75;;
51746;SDS011;37825;40.088;18.302;2022-08-27T12:50:07;8.38;;;5.15;;
51746;SDS011;37825;40.088;18.302;2022-08-27T12:55:40;8.32;;;4.38;;
51746;SDS011;37825;40.088;18.302;2022-08-27T12:58:21;6.35;;;4.38;;
51746;SDS011;37825;40.088;18.302;2022-08-27T13:01:00;5.40;;;4.03;;
51746;SDS011;37825;40.088;18.302;2022-08-27T13:03:34;5.25;;;4.75;;
51746;SDS011;37825;40.088;18.302;2022-08-27T13:06:27;7.30;;;4.55;;
51746;SDS011;37825;40.088;18.302;2022-08-27T13:08:57;5.00;;;4.13;;
51746;SDS011;37825;40.088;18.302;2022-08-27T13:11:48;8.32;;;4.40;;
51746;SDS011;37825;40.088;18.302;2022-08-27T13:14:16;6.40;;;4.57;;
51746;SDS011;37825;40.088;18.302;2022-08-27T13:16:49;7.75;;;5.13;;
51746;SDS011;37825;40.088;18.302;2022-08-27T13:21:49;6.28;;;4.82;;
51746;SDS011;37825;40.088;18.302;2022-08-27T13:24:20;6.57;;;4.68;;
51746;SDS011;37825;40.088;18.302;2022-08-27T13:26:53;8.35;;;5.15;;
51746;SDS011;37825;40.088;18.302;2022-08-27T13:29:23;8.13;;;5.70;;
51746;SDS011;37825;40.088;18.302;2022-08-27T13:31:53;8.43;;;4.97;;
51746;SDS011;37825;40.088;18.302;2022-08-27T13:34:23;5.63;;;4.65;;
51746;SDS011;37825;40.088;18.302;2022-08-27T13:36:59;8.13;;;4.55;;
51746;SDS011;37825;40.088;18.302;2022-08-27T13:39:34;7.20;;;4.60;;
51746;SDS011;37825;40.088;18.302;2022-08-27T13:42:05;8.13;;;5.30;;
51746;SDS011;37825;40.088;18.302;2022-08-27T13:44:40;6.97;;;4.65;;
51746;SDS011;37825;40.088;18.302;2022-08-27T13:49:43;8.98;;;4.45;;
51746;SDS011;37825;40.088;18.302;2022-08-27T13:52:29;6.80;;;4.57;;
51746;SDS011;37825;40.088;18.302;2022-08-27T13:55:06;11.52;;;6.07;;
51746;SDS011;37825;40.088;18.302;2022-08-27T13:57:45;11.25;;;5.93;;
51746;SDS011;37825;40.088;18.302;2022-08-27T14:00:25;9.13;;;5.28;;
51746;SDS011;37825;40.088;18.302;2022-08-27T14:02:54;10.02;;;5.10;;
51746;SDS011;37825;40.088;18.302;2022-08-27T14:07:55;20.75;;;6.88;;
51746;SDS011;37825;40.088;18.302;2022-08-27T14:10:34;11.40;;;7.38;;
51746;SDS011;37825;40.088;18.302;2022-08-27T14:18:00;17.23;;;7.82;;
51746;SDS011;37825;40.088;18.302;2022-08-27T14:20:29;18.13;;;7.85;;
51746;SDS011;37825;40.088;18.302;2022-08-27T14:22:58;9.43;;;5.78;;
51746;SDS011;37825;40.088;18.302;2022-08-27T14:25:26;7.50;;;5.68;;
51746;SDS011;37825;40.088;18.302;2022-08-27T14:27:55;12.07;;;6.47;;
51746;SDS011;37825;40.088;18.302;2022-08-27T14:30:24;9.15;;;5.50;;
51746;SDS011;37825;40.088;18.302;2022-08-27T14:32:53;10.15;;;5.50;;
51746;SDS011;37825;40.088;18.302;2022-08-27T14:35:21;10.70;;;5.60;;
51746;SDS011;37825;40.088;18.302;2022-08-27T14:37:50;8.45;;;4.78;;
51746;SDS011;37825;40.088;18.302;2022-08-27T14:40:18;9.65;;;4.70;;
51746;SDS011;37825;40.088;18.302;2022-08-27T14:42:47;6.78;;;4.55;;
51746;SDS011;37825;40.088;18.302;2022-08-27T14:45:24;8.50;;;5.38;;
51746;SDS011;37825;40.088;18.302;2022-08-27T14:47:53;9.23;;;4.75;;
51746;SDS011;37825;40.088;18.302;2022-08-27T14:50:23;12.60;;;5.38;;
51746;SDS011;37825;40.088;18.302;2022-08-27T14:52:55;9.20;;;4.80;;
51746;SDS011;37825;40.088;18.302;2022-08-27T14:55:24;7.80;;;4.72;;
51746;SDS011;37825;40.088;18.302;2022-08-27T14:57:53;7.57;;;5.60;;
51746;SDS011;37825;40.088;18.302;2022-08-27T15:00:22;4.38;;;3.97;;
51746;SDS011;37825;40.088;18.302;2022-08-27T15:02:54;6.40;;;4.63;;
51746;SDS011;37825;40.088;18.302;2022-08-27T15:05:24;5.57;;;4.60;;
51746;SDS011;37825;40.088;18.302;2022-08-27T15:07:56;5.40;;;4.10;;
51746;SDS011;37825;40.088;18.302;2022-08-27T15:10:25;6.10;;;5.38;;
51746;SDS011;37825;40.088;18.302;2022-08-27T15:12:54;7.95;;;4.57;;
51746;SDS011;37825;40.088;18.302;2022-08-27T15:15:24;7.20;;;4.28;;
51746;SDS011;37825;40.088;18.302;2022-08-27T15:17:53;7.40;;;4.28;;
51746;SDS011;37825;40.088;18.302;2022-08-27T15:20:21;7.18;;;3.88;;
51746;SDS011;37825;40.088;18.302;2022-08-27T15:22:50;7.33;;;4.97;;
51746;SDS011;37825;40.088;18.302;2022-08-27T15:25:19;5.20;;;4.00;;
51746;SDS011;37825;40.088;18.302;2022-08-27T15:27:47;5.15;;;4.38;;
51746;SDS011;37825;40.088;18.302;2022-08-27T15:30:16;5.65;;;3.80;;
51746;SDS011;37825;40.088;18.302;2022-08-27T15:32:46;7.68;;;4.30;;
51746;SDS011;37825;40.088;18.302;2022-08-27T15:37:43;5.22;;;4.45;;
51746;SDS011;37825;40.088;18.302;2022-08-27T15:40:15;5.72;;;4.32;;
51746;SDS011;37825;40.088;18.302;2022-08-27T15:42:45;7.72;;;3.90;;
51746;SDS011;37825;40.088;18.302;2022-08-27T15:45:15;4.38;;;2.90;;
51746;SDS011;37825;40.088;18.302;2022-08-27T15:47:44;4.88;;;3.85;;
51746;SDS011;37825;40.088;18.302;2022-08-27T15:50:20;6.57;;;3.97;;
51746;SDS011;37825;40.088;18.302;2022-08-27T15:52:54;4.70;;;3.15;;
51746;SDS011;37825;40.088;18.302;2022-08-27T15:55:28;5.88;;;3.35;;
51746;SDS011;37825;40.088;18.302;2022-08-27T15:57:57;6.00;;;3.10;;
51746;SDS011;37825;40.088;18.302;2022-08-27T16:00:28;7.60;;;4.00;;
51746;SDS011;37825;40.088;18.302;2022-08-27T16:02:59;5.63;;;4.30;;
51746;SDS011;37825;40.088;18.302;2022-08-27T16:05:30;6.85;;;3.55;;
51746;SDS011;37825;40.088;18.302;2022-08-27T16:08:00;8.18;;;3.92;;
51746;SDS011;37825;40.088;18.302;2022-08-27T16:10:29;4.40;;;3.55;;
51746;SDS011;37825;40.088;18.302;2022-08-27T16:12:57;3.67;;;3.28;;